sensor_id;sensor_type;location;lat;lon;timestamp;P1;durP1;ratioP1;P2;durP2;ratioP2
62861;SDS011;48953;53.110;5.592;2023-11-19T00:01:50;42.53;;;4.72;;
62861;SDS011;48953;53.110;5.592;2023-11-19T00:04:16;34.25;;;4.05;;
62861;SDS011;48953;53.110;5.592;2023-11-19T00:06:42;32.15;;;4.50;;
62861;SDS011;48953;53.110;5.592;2023-11-19T00:09:08;39.22;;;4.53;;
62861;SDS011;48953;53.110;5.592;2023-11-19T00:11:34;55.72;;;5.53;;
62861;SDS011;48953;53.110;5.592;2023-11-19T00:14:01;46.97;;;5.50;;
62861;SDS011;48953;53.110;5.592;2023-11-19T00:16:27;36.42;;;4.80;;
62861;SDS011;48953;53.110;5.592;2023-11-19T00:18:53;36.08;;;4.82;;
62861;SDS011;48953;53.110;5.592;2023-11-19T00:21:19;31.85;;;3.85;;
62861;SDS011;48953;53.110;5.592;2023-11-19T00:23:45;37.65;;;4.85;;
62861;SDS011;48953;53.110;5.592;2023-11-19T00:26:11;41.08;;;5.43;;
62861;SDS011;48953;53.110;5.592;2023-11-19T00:28:38;33.80;;;4.32;;
62861;SDS011;48953;53.110;5.592;2023-11-19T00:31:04;39.25;;;4.80;;
62861;SDS011;48953;53.110;5.592;2023-11-19T00:33:30;31.70;;;4.35;;
62861;SDS011;48953;53.110;5.592;2023-11-19T00:35:56;39.30;;;4.75;;
62861;SDS011;48953;53.110;5.592;2023-11-19T00:38:22;36.03;;;3.97;;
62861;SDS011;48953;53.110;5.592;2023-11-19T00:40:48;42.35;;;4.80;;
62861;SDS011;48953;53.110;5.592;2023-11-19T00:43:14;36.30;;;4.32;;
62861;SDS011;48953;53.110;5.592;2023-11-19T00:45:40;44.13;;;4.63;;
62861;SDS011;48953;53.110;5.592;2023-11-19T00:48:06;38.22;;;4.45;;
62861;SDS011;48953;53.110;5.592;2023-11-19T00:50:32;46.80;;;5.13;;
62861;SDS011;48953;53.110;5.592;2023-11-19T00:52:58;43.70;;;4.72;;
62861;SDS011;48953;53.110;5.592;2023-11-19T00:55:24;43.47;;;4.80;;
62861;SDS011;48953;53.110;5.592;2023-11-19T00:57:50;40.17;;;4.22;;
62861;SDS011;48953;53.110;5.592;2023-11-19T01:00:15;36.88;;;4.30;;
62861;SDS011;48953;53.110;5.592;2023-11-19T01:05:12;34.33;;;5.60;;
62861;SDS011;48953;53.110;5.592;2023-11-19T01:07:41;39.88;;;4.53;;
62861;SDS011;48953;53.110;5.592;2023-11-19T01:10:08;41.08;;;5.22;;
62861;SDS011;48953;53.110;5.592;2023-11-19T01:12:34;44.90;;;4.82;;
62861;SDS011;48953;53.110;5.592;2023-11-19T01:15:00;38.63;;;5.28;;
62861;SDS011;48953;53.110;5.592;2023-11-19T01:17:26;38.50;;;5.72;;
62861;SDS011;48953;53.110;5.592;2023-11-19T01:19:52;32.78;;;4.70;;
62861;SDS011;48953;53.110;5.592;2023-11-19T01:22:18;32.67;;;4.45;;
62861;SDS011;48953;53.110;5.592;2023-11-19T01:24:44;41.50;;;5.43;;
62861;SDS011;48953;53.110;5.592;2023-11-19T01:27:10;45.80;;;4.93;;
62861;SDS011;48953;53.110;5.592;2023-11-19T01:29:36;38.88;;;5.15;;
62861;SDS011;48953;53.110;5.592;2023-11-19T01:32:03;37.35;;;4.88;;
62861;SDS011;48953;53.110;5.592;2023-11-19T01:34:29;34.90;;;4.28;;
62861;SDS011;48953;53.110;5.592;2023-11-19T01:36:55;33.90;;;4.95;;
62861;SDS011;48953;53.110;5.592;2023-11-19T01:39:21;40.47;;;4.40;;
62861;SDS011;48953;53.110;5.592;2023-11-19T01:41:47;39.88;;;4.50;;
62861;SDS011;48953;53.110;5.592;2023-11-19T01:44:13;37.65;;;4.28;;
62861;SDS011;48953;53.110;5.592;2023-11-19T01:46:43;35.22;;;5.55;;
62861;SDS011;48953;53.110;5.592;2023-11-19T01:49:10;40.92;;;4.80;;
62861;SDS011;48953;53.110;5.592;2023-11-19T01:51:37;46.42;;;5.10;;
62861;SDS011;48953;53.110;5.592;2023-11-19T01:54:03;40.42;;;4.68;;
62861;SDS011;48953;53.110;5.592;2023-11-19T01:56:29;39.40;;;4.45;;
62861;SDS011;48953;53.110;5.592;2023-11-19T01:58:56;37.70;;;4.78;;
62861;SDS011;48953;53.110;5.592;2023-11-19T02:01:22;37.08;;;3.90;;
62861;SDS011;48953;53.110;5.592;2023-11-19T02:03:49;40.15;;;4.53;;
62861;SDS011;48953;53.110;5.592;2023-11-19T02:06:15;45.70;;;5.68;;
62861;SDS011;48953;53.110;5.592;2023-11-19T02:08:41;39.97;;;4.90;;
62861;SDS011;48953;53.110;5.592;2023-11-19T02:11:07;42.95;;;5.45;;
62861;SDS011;48953;53.110;5.592;2023-11-19T02:13:33;31.80;;;4.30;;
62861;SDS011;48953;53.110;5.592;2023-11-19T02:16:02;42.95;;;5.15;;
62861;SDS011;48953;53.110;5.592;2023-11-19T02:18:28;46.33;;;4.97;;
62861;SDS011;48953;53.110;5.592;2023-11-19T02:20:55;41.85;;;4.75;;
62861;SDS011;48953;53.110;5.592;2023-11-19T02:23:21;42.72;;;4.63;;
62861;SDS011;48953;53.110;5.592;2023-11-19T02:26:24;33.60;;;4.35;;
62861;SDS011;48953;53.110;5.592;2023-11-19T02:28:40;40.28;;;5.38;;
62861;SDS011;48953;53.110;5.592;2023-11-19T02:31:07;35.42;;;4.90;;
62861;SDS011;48953;53.110;5.592;2023-11-19T02:33:34;48.90;;;5.72;;
62861;SDS011;48953;53.110;5.592;2023-11-19T02:36:03;35.72;;;3.80;;
62861;SDS011;48953;53.110;5.592;2023-11-19T02:38:29;41.83;;;4.57;;
62861;SDS011;48953;53.110;5.592;2023-11-19T02:40:56;45.72;;;6.22;;
62861;SDS011;48953;53.110;5.592;2023-11-19T02:43:22;33.38;;;4.85;;
62861;SDS011;48953;53.110;5.592;2023-11-19T02:45:48;43.00;;;4.95;;
62861;SDS011;48953;53.110;5.592;2023-11-19T02:48:14;42.08;;;4.70;;
62861;SDS011;48953;53.110;5.592;2023-11-19T02:50:41;41.80;;;5.03;;
62861;SDS011;48953;53.110;5.592;2023-11-19T02:53:07;48.28;;;5.60;;
62861;SDS011;48953;53.110;5.592;2023-11-19T02:55:33;36.05;;;4.85;;
62861;SDS011;48953;53.110;5.592;2023-11-19T02:58:03;41.78;;;5.10;;
62861;SDS011;48953;53.110;5.592;2023-11-19T03:00:39;38.22;;;5.05;;
62861;SDS011;48953;53.110;5.592;2023-11-19T03:03:12;54.10;;;5.15;;
62861;SDS011;48953;53.110;5.592;2023-11-19T03:05:48;54.40;;;6.15;;
62861;SDS011;48953;53.110;5.592;2023-11-19T03:08:17;54.20;;;4.80;;
62861;SDS011;48953;53.110;5.592;2023-11-19T03:10:43;57.22;;;6.47;;
62861;SDS011;48953;53.110;5.592;2023-11-19T03:13:10;45.28;;;5.93;;
62861;SDS011;48953;53.110;5.592;2023-11-19T03:15:40;55.92;;;5.50;;
62861;SDS011;48953;53.110;5.592;2023-11-19T03:18:06;53.03;;;6.18;;
62861;SDS011;48953;53.110;5.592;2023-11-19T03:20:32;43.78;;;5.47;;
62861;SDS011;48953;53.110;5.592;2023-11-19T03:22:58;43.80;;;4.90;;
62861;SDS011;48953;53.110;5.592;2023-11-19T03:25:26;44.70;;;5.18;;
62861;SDS011;48953;53.110;5.592;2023-11-19T03:27:58;43.03;;;5.47;;
62861;SDS011;48953;53.110;5.592;2023-11-19T03:30:23;44.45;;;5.10;;
62861;SDS011;48953;53.110;5.592;2023-11-19T03:32:49;42.47;;;6.22;;
62861;SDS011;48953;53.110;5.592;2023-11-19T03:35:15;38.95;;;5.15;;
62861;SDS011;48953;53.110;5.592;2023-11-19T03:37:41;48.47;;;5.25;;
62861;SDS011;48953;53.110;5.592;2023-11-19T03:40:08;45.80;;;4.97;;
62861;SDS011;48953;53.110;5.592;2023-11-19T03:42:35;37.83;;;4.80;;
62861;SDS011;48953;53.110;5.592;2023-11-19T03:45:01;47.90;;;5.22;;
62861;SDS011;48953;53.110;5.592;2023-11-19T03:47:29;40.78;;;4.95;;
62861;SDS011;48953;53.110;5.592;2023-11-19T03:49:55;38.85;;;4.97;;
62861;SDS011;48953;53.110;5.592;2023-11-19T03:52:21;43.65;;;4.90;;
62861;SDS011;48953;53.110;5.592;2023-11-19T03:54:47;40.10;;;4.85;;
62861;SDS011;48953;53.110;5.592;2023-11-19T03:57:12;64.00;;;5.28;;
62861;SDS011;48953;53.110;5.592;2023-11-19T03:59:40;48.88;;;4.55;;
62861;SDS011;48953;53.110;5.592;2023-11-19T04:02:06;39.17;;;4.97;;
62861;SDS011;48953;53.110;5.592;2023-11-19T04:04:32;45.08;;;4.88;;
62861;SDS011;48953;53.110;5.592;2023-11-19T04:06:59;53.80;;;6.05;;
62861;SDS011;48953;53.110;5.592;2023-11-19T04:09:25;52.45;;;5.95;;
62861;SDS011;48953;53.110;5.592;2023-11-19T04:11:51;45.65;;;5.30;;
62861;SDS011;48953;53.110;5.592;2023-11-19T04:14:17;53.20;;;6.15;;
62861;SDS011;48953;53.110;5.592;2023-11-19T04:16:44;47.97;;;5.53;;
62861;SDS011;48953;53.110;5.592;2023-11-19T04:19:10;54.55;;;4.88;;
62861;SDS011;48953;53.110;5.592;2023-11-19T04:21:36;47.25;;;5.82;;
62861;SDS011;48953;53.110;5.592;2023-11-19T04:24:02;52.38;;;5.70;;
62861;SDS011;48953;53.110;5.592;2023-11-19T04:26:28;45.63;;;5.43;;
62861;SDS011;48953;53.110;5.592;2023-11-19T04:28:56;51.58;;;4.93;;
62861;SDS011;48953;53.110;5.592;2023-11-19T04:31:22;44.72;;;5.35;;
62861;SDS011;48953;53.110;5.592;2023-11-19T04:33:48;45.42;;;5.05;;
62861;SDS011;48953;53.110;5.592;2023-11-19T04:36:18;53.75;;;5.65;;
62861;SDS011;48953;53.110;5.592;2023-11-19T04:38:44;53.10;;;5.90;;
62861;SDS011;48953;53.110;5.592;2023-11-19T04:41:11;52.88;;;5.38;;
62861;SDS011;48953;53.110;5.592;2023-11-19T04:43:37;42.28;;;4.07;;
62861;SDS011;48953;53.110;5.592;2023-11-19T04:46:06;42.97;;;6.03;;
62861;SDS011;48953;53.110;5.592;2023-11-19T04:48:32;38.07;;;4.93;;
62861;SDS011;48953;53.110;5.592;2023-11-19T04:50:58;45.70;;;5.93;;
62861;SDS011;48953;53.110;5.592;2023-11-19T04:53:24;42.72;;;5.22;;
62861;SDS011;48953;53.110;5.592;2023-11-19T04:55:50;43.13;;;5.25;;
62861;SDS011;48953;53.110;5.592;2023-11-19T04:58:16;49.63;;;5.82;;
62861;SDS011;48953;53.110;5.592;2023-11-19T05:00:42;52.10;;;5.53;;
62861;SDS011;48953;53.110;5.592;2023-11-19T05:03:07;46.05;;;5.15;;
62861;SDS011;48953;53.110;5.592;2023-11-19T05:05:33;41.80;;;5.10;;
62861;SDS011;48953;53.110;5.592;2023-11-19T05:07:59;41.00;;;4.65;;
62861;SDS011;48953;53.110;5.592;2023-11-19T05:10:26;43.47;;;5.03;;
62861;SDS011;48953;53.110;5.592;2023-11-19T05:12:52;55.67;;;5.85;;
62861;SDS011;48953;53.110;5.592;2023-11-19T05:15:18;44.85;;;5.28;;
62861;SDS011;48953;53.110;5.592;2023-11-19T05:17:44;48.78;;;6.00;;
62861;SDS011;48953;53.110;5.592;2023-11-19T05:20:10;40.10;;;5.10;;
62861;SDS011;48953;53.110;5.592;2023-11-19T05:22:41;49.38;;;5.82;;
62861;SDS011;48953;53.110;5.592;2023-11-19T05:25:07;36.78;;;4.88;;
62861;SDS011;48953;53.110;5.592;2023-11-19T05:27:36;39.00;;;5.72;;
62861;SDS011;48953;53.110;5.592;2023-11-19T05:30:04;56.17;;;5.90;;
62861;SDS011;48953;53.110;5.592;2023-11-19T05:32:32;56.45;;;5.53;;
62861;SDS011;48953;53.110;5.592;2023-11-19T05:34:58;42.78;;;4.88;;
62861;SDS011;48953;53.110;5.592;2023-11-19T05:37:24;41.30;;;5.30;;
62861;SDS011;48953;53.110;5.592;2023-11-19T05:39:50;37.17;;;4.22;;
62861;SDS011;48953;53.110;5.592;2023-11-19T05:42:17;45.40;;;4.55;;
62861;SDS011;48953;53.110;5.592;2023-11-19T05:44:43;49.78;;;4.97;;
62861;SDS011;48953;53.110;5.592;2023-11-19T05:47:09;36.63;;;4.88;;
62861;SDS011;48953;53.110;5.592;2023-11-19T05:49:35;38.53;;;5.05;;
62861;SDS011;48953;53.110;5.592;2023-11-19T05:52:01;42.85;;;5.18;;
62861;SDS011;48953;53.110;5.592;2023-11-19T05:54:28;40.75;;;5.10;;
62861;SDS011;48953;53.110;5.592;2023-11-19T05:56:54;42.78;;;5.30;;
62861;SDS011;48953;53.110;5.592;2023-11-19T05:59:20;49.25;;;5.68;;
62861;SDS011;48953;53.110;5.592;2023-11-19T06:01:47;45.40;;;5.60;;
62861;SDS011;48953;53.110;5.592;2023-11-19T06:04:13;52.72;;;5.53;;
62861;SDS011;48953;53.110;5.592;2023-11-19T06:06:39;43.13;;;6.13;;
62861;SDS011;48953;53.110;5.592;2023-11-19T06:09:05;43.20;;;5.32;;
62861;SDS011;48953;53.110;5.592;2023-11-19T06:11:33;39.78;;;5.10;;
62861;SDS011;48953;53.110;5.592;2023-11-19T06:14:00;38.20;;;4.40;;
62861;SDS011;48953;53.110;5.592;2023-11-19T06:16:27;46.40;;;5.63;;
62861;SDS011;48953;53.110;5.592;2023-11-19T06:18:53;41.03;;;4.78;;
62861;SDS011;48953;53.110;5.592;2023-11-19T06:21:19;45.38;;;4.63;;
62861;SDS011;48953;53.110;5.592;2023-11-19T06:23:45;46.47;;;5.93;;
62861;SDS011;48953;53.110;5.592;2023-11-19T06:26:11;38.38;;;4.65;;
62861;SDS011;48953;53.110;5.592;2023-11-19T06:28:37;33.53;;;4.10;;
62861;SDS011;48953;53.110;5.592;2023-11-19T06:31:03;45.92;;;5.07;;
62861;SDS011;48953;53.110;5.592;2023-11-19T06:33:29;42.25;;;4.68;;
62861;SDS011;48953;53.110;5.592;2023-11-19T06:35:55;40.25;;;4.60;;
62861;SDS011;48953;53.110;5.592;2023-11-19T06:38:21;40.08;;;4.60;;
62861;SDS011;48953;53.110;5.592;2023-11-19T06:40:47;41.50;;;7.13;;
62861;SDS011;48953;53.110;5.592;2023-11-19T06:43:13;33.05;;;4.82;;
62861;SDS011;48953;53.110;5.592;2023-11-19T06:45:40;33.90;;;5.10;;
62861;SDS011;48953;53.110;5.592;2023-11-19T06:48:06;40.85;;;5.15;;
62861;SDS011;48953;53.110;5.592;2023-11-19T06:50:32;44.92;;;5.55;;
62861;SDS011;48953;53.110;5.592;2023-11-19T06:52:58;38.10;;;4.95;;
62861;SDS011;48953;53.110;5.592;2023-11-19T06:55:25;38.13;;;5.03;;
62861;SDS011;48953;53.110;5.592;2023-11-19T06:57:51;47.05;;;5.13;;
62861;SDS011;48953;53.110;5.592;2023-11-19T07:00:17;41.28;;;4.90;;
62861;SDS011;48953;53.110;5.592;2023-11-19T07:02:44;50.28;;;6.47;;
62861;SDS011;48953;53.110;5.592;2023-11-19T07:05:09;46.92;;;4.55;;
62861;SDS011;48953;53.110;5.592;2023-11-19T07:07:38;38.22;;;4.68;;
62861;SDS011;48953;53.110;5.592;2023-11-19T07:10:05;44.00;;;5.05;;
62861;SDS011;48953;53.110;5.592;2023-11-19T07:12:34;45.10;;;5.22;;
62861;SDS011;48953;53.110;5.592;2023-11-19T07:15:00;47.63;;;5.07;;
62861;SDS011;48953;53.110;5.592;2023-11-19T07:17:28;36.40;;;4.78;;
62861;SDS011;48953;53.110;5.592;2023-11-19T07:19:53;37.50;;;5.05;;
62861;SDS011;48953;53.110;5.592;2023-11-19T07:22:19;35.35;;;4.07;;
62861;SDS011;48953;53.110;5.592;2023-11-19T07:24:45;46.03;;;5.35;;
62861;SDS011;48953;53.110;5.592;2023-11-19T07:27:11;42.85;;;5.00;;
62861;SDS011;48953;53.110;5.592;2023-11-19T07:29:38;35.55;;;4.63;;
62861;SDS011;48953;53.110;5.592;2023-11-19T07:32:04;38.28;;;4.20;;
62861;SDS011;48953;53.110;5.592;2023-11-19T07:34:30;39.38;;;4.35;;
62861;SDS011;48953;53.110;5.592;2023-11-19T07:36:56;37.90;;;5.40;;
62861;SDS011;48953;53.110;5.592;2023-11-19T07:39:24;37.10;;;5.53;;
62861;SDS011;48953;53.110;5.592;2023-11-19T07:41:50;35.53;;;5.95;;
62861;SDS011;48953;53.110;5.592;2023-11-19T07:44:16;37.08;;;5.35;;
62861;SDS011;48953;53.110;5.592;2023-11-19T07:46:42;38.90;;;4.47;;
62861;SDS011;48953;53.110;5.592;2023-11-19T07:49:10;34.95;;;5.05;;
62861;SDS011;48953;53.110;5.592;2023-11-19T07:51:36;46.05;;;5.10;;
62861;SDS011;48953;53.110;5.592;2023-11-19T07:54:02;41.63;;;5.65;;
62861;SDS011;48953;53.110;5.592;2023-11-19T07:56:29;41.22;;;5.20;;
62861;SDS011;48953;53.110;5.592;2023-11-19T07:58:55;39.80;;;6.38;;
62861;SDS011;48953;53.110;5.592;2023-11-19T08:01:21;36.55;;;5.35;;
62861;SDS011;48953;53.110;5.592;2023-11-19T08:03:48;38.00;;;5.22;;
62861;SDS011;48953;53.110;5.592;2023-11-19T08:06:14;43.90;;;5.57;;
62861;SDS011;48953;53.110;5.592;2023-11-19T08:08:40;47.25;;;4.60;;
62861;SDS011;48953;53.110;5.592;2023-11-19T08:11:06;41.33;;;4.65;;
62861;SDS011;48953;53.110;5.592;2023-11-19T08:13:33;29.02;;;4.88;;
62861;SDS011;48953;53.110;5.592;2023-11-19T08:15:59;50.33;;;6.35;;
62861;SDS011;48953;53.110;5.592;2023-11-19T08:18:24;40.47;;;5.50;;
62861;SDS011;48953;53.110;5.592;2023-11-19T08:20:50;39.20;;;4.55;;
62861;SDS011;48953;53.110;5.592;2023-11-19T08:23:18;38.40;;;5.40;;
62861;SDS011;48953;53.110;5.592;2023-11-19T08:25:44;38.05;;;4.95;;
62861;SDS011;48953;53.110;5.592;2023-11-19T08:28:10;42.20;;;5.03;;
62861;SDS011;48953;53.110;5.592;2023-11-19T08:30:36;47.45;;;5.82;;
62861;SDS011;48953;53.110;5.592;2023-11-19T08:33:02;34.90;;;5.22;;
62861;SDS011;48953;53.110;5.592;2023-11-19T08:35:30;36.60;;;5.57;;
62861;SDS011;48953;53.110;5.592;2023-11-19T08:37:56;40.83;;;6.40;;
62861;SDS011;48953;53.110;5.592;2023-11-19T08:40:24;48.90;;;5.10;;
62861;SDS011;48953;53.110;5.592;2023-11-19T08:42:51;30.77;;;4.38;;
62861;SDS011;48953;53.110;5.592;2023-11-19T08:45:17;34.00;;;4.45;;
62861;SDS011;48953;53.110;5.592;2023-11-19T08:47:43;38.35;;;5.20;;
62861;SDS011;48953;53.110;5.592;2023-11-19T08:50:10;40.75;;;6.65;;
62861;SDS011;48953;53.110;5.592;2023-11-19T08:52:36;29.38;;;4.38;;
62861;SDS011;48953;53.110;5.592;2023-11-19T08:55:02;36.63;;;4.93;;
62861;SDS011;48953;53.110;5.592;2023-11-19T08:57:30;29.50;;;4.60;;
62861;SDS011;48953;53.110;5.592;2023-11-19T08:59:56;41.70;;;4.45;;
62861;SDS011;48953;53.110;5.592;2023-11-19T09:02:22;37.30;;;5.38;;
62861;SDS011;48953;53.110;5.592;2023-11-19T09:04:48;38.55;;;6.32;;
62861;SDS011;48953;53.110;5.592;2023-11-19T09:07:13;34.63;;;4.88;;
62861;SDS011;48953;53.110;5.592;2023-11-19T09:09:39;34.55;;;4.30;;
62861;SDS011;48953;53.110;5.592;2023-11-19T09:12:06;36.58;;;6.93;;
62861;SDS011;48953;53.110;5.592;2023-11-19T09:14:32;36.85;;;4.40;;
62861;SDS011;48953;53.110;5.592;2023-11-19T09:16:58;35.90;;;4.68;;
62861;SDS011;48953;53.110;5.592;2023-11-19T09:19:24;29.92;;;4.82;;
62861;SDS011;48953;53.110;5.592;2023-11-19T09:21:51;28.58;;;4.35;;
62861;SDS011;48953;53.110;5.592;2023-11-19T09:24:18;32.25;;;4.40;;
62861;SDS011;48953;53.110;5.592;2023-11-19T09:26:44;26.08;;;4.43;;
62861;SDS011;48953;53.110;5.592;2023-11-19T09:29:10;32.22;;;3.97;;
62861;SDS011;48953;53.110;5.592;2023-11-19T09:31:37;36.58;;;5.05;;
62861;SDS011;48953;53.110;5.592;2023-11-19T09:34:04;33.83;;;4.97;;
62861;SDS011;48953;53.110;5.592;2023-11-19T09:36:30;36.00;;;5.10;;
62861;SDS011;48953;53.110;5.592;2023-11-19T09:38:56;33.33;;;4.32;;
62861;SDS011;48953;53.110;5.592;2023-11-19T09:41:24;33.75;;;3.88;;
62861;SDS011;48953;53.110;5.592;2023-11-19T09:43:53;33.85;;;4.25;;
62861;SDS011;48953;53.110;5.592;2023-11-19T09:46:19;27.08;;;4.03;;
62861;SDS011;48953;53.110;5.592;2023-11-19T09:48:45;29.95;;;4.40;;
62861;SDS011;48953;53.110;5.592;2023-11-19T09:51:13;29.67;;;4.50;;
62861;SDS011;48953;53.110;5.592;2023-11-19T09:53:39;31.98;;;4.88;;
62861;SDS011;48953;53.110;5.592;2023-11-19T09:56:06;29.52;;;3.70;;
62861;SDS011;48953;53.110;5.592;2023-11-19T09:58:33;29.25;;;4.68;;
62861;SDS011;48953;53.110;5.592;2023-11-19T10:00:59;27.90;;;4.35;;
62861;SDS011;48953;53.110;5.592;2023-11-19T10:03:32;31.33;;;4.65;;
62861;SDS011;48953;53.110;5.592;2023-11-19T10:06:00;29.92;;;3.58;;
62861;SDS011;48953;53.110;5.592;2023-11-19T10:08:26;31.10;;;4.82;;
62861;SDS011;48953;53.110;5.592;2023-11-19T10:10:52;27.48;;;4.32;;
62861;SDS011;48953;53.110;5.592;2023-11-19T10:13:18;32.97;;;4.22;;
62861;SDS011;48953;53.110;5.592;2023-11-19T10:15:44;32.17;;;4.53;;
62861;SDS011;48953;53.110;5.592;2023-11-19T10:18:11;24.55;;;3.63;;
62861;SDS011;48953;53.110;5.592;2023-11-19T10:20:40;34.35;;;5.90;;
62861;SDS011;48953;53.110;5.592;2023-11-19T10:23:07;31.33;;;5.10;;
62861;SDS011;48953;53.110;5.592;2023-11-19T10:25:33;27.75;;;4.50;;
62861;SDS011;48953;53.110;5.592;2023-11-19T10:28:00;22.02;;;2.72;;
62861;SDS011;48953;53.110;5.592;2023-11-19T10:30:29;25.02;;;4.18;;
62861;SDS011;48953;53.110;5.592;2023-11-19T10:33:14;34.95;;;6.38;;
62861;SDS011;48953;53.110;5.592;2023-11-19T10:35:55;20.13;;;3.30;;
62861;SDS011;48953;53.110;5.592;2023-11-19T10:38:21;25.58;;;4.95;;
62861;SDS011;48953;53.110;5.592;2023-11-19T10:40:48;29.77;;;4.00;;
62861;SDS011;48953;53.110;5.592;2023-11-19T10:43:15;25.15;;;4.82;;
62861;SDS011;48953;53.110;5.592;2023-11-19T10:45:42;22.02;;;3.22;;
62861;SDS011;48953;53.110;5.592;2023-11-19T10:48:08;31.60;;;3.95;;
62861;SDS011;48953;53.110;5.592;2023-11-19T10:50:35;34.70;;;3.85;;
62861;SDS011;48953;53.110;5.592;2023-11-19T10:53:01;27.77;;;4.18;;
62861;SDS011;48953;53.110;5.592;2023-11-19T10:55:29;27.83;;;4.63;;
62861;SDS011;48953;53.110;5.592;2023-11-19T10:57:59;31.88;;;4.65;;
62861;SDS011;48953;53.110;5.592;2023-11-19T11:00:26;27.83;;;4.05;;
62861;SDS011;48953;53.110;5.592;2023-11-19T11:02:56;26.92;;;4.28;;
62861;SDS011;48953;53.110;5.592;2023-11-19T11:05:25;21.02;;;3.78;;
62861;SDS011;48953;53.110;5.592;2023-11-19T11:07:52;31.48;;;5.10;;
62861;SDS011;48953;53.110;5.592;2023-11-19T11:10:21;21.42;;;4.25;;
62861;SDS011;48953;53.110;5.592;2023-11-19T11:12:51;26.40;;;4.10;;
62861;SDS011;48953;53.110;5.592;2023-11-19T11:15:22;30.08;;;4.03;;
62861;SDS011;48953;53.110;5.592;2023-11-19T11:17:48;26.60;;;4.55;;
62861;SDS011;48953;53.110;5.592;2023-11-19T11:20:15;32.97;;;4.88;;
62861;SDS011;48953;53.110;5.592;2023-11-19T11:25:33;27.65;;;4.13;;
62861;SDS011;48953;53.110;5.592;2023-11-19T11:33:15;27.17;;;4.20;;
62861;SDS011;48953;53.110;5.592;2023-11-19T11:35:52;27.92;;;4.45;;
62861;SDS011;48953;53.110;5.592;2023-11-19T11:38:21;38.70;;;7.60;;
62861;SDS011;48953;53.110;5.592;2023-11-19T11:48:56;34.22;;;5.53;;
62861;SDS011;48953;53.110;5.592;2023-11-19T11:54:08;23.17;;;4.40;;
62861;SDS011;48953;53.110;5.592;2023-11-19T11:56:36;25.77;;;4.05;;
62861;SDS011;48953;53.110;5.592;2023-11-19T11:59:03;20.08;;;3.90;;
62861;SDS011;48953;53.110;5.592;2023-11-19T12:01:29;23.08;;;3.85;;
62861;SDS011;48953;53.110;5.592;2023-11-19T12:03:55;28.05;;;4.53;;
62861;SDS011;48953;53.110;5.592;2023-11-19T12:06:22;33.30;;;4.57;;
62861;SDS011;48953;53.110;5.592;2023-11-19T12:08:48;29.40;;;4.32;;
62861;SDS011;48953;53.110;5.592;2023-11-19T12:11:14;31.63;;;3.90;;
62861;SDS011;48953;53.110;5.592;2023-11-19T12:13:53;26.33;;;5.47;;
62861;SDS011;48953;53.110;5.592;2023-11-19T12:16:21;24.95;;;3.22;;
62861;SDS011;48953;53.110;5.592;2023-11-19T12:18:47;27.95;;;4.55;;
62861;SDS011;48953;53.110;5.592;2023-11-19T12:21:27;24.98;;;3.70;;
62861;SDS011;48953;53.110;5.592;2023-11-19T12:23:53;21.40;;;3.17;;
62861;SDS011;48953;53.110;5.592;2023-11-19T12:26:37;33.58;;;3.58;;
62861;SDS011;48953;53.110;5.592;2023-11-19T12:29:04;21.88;;;3.45;;
62861;SDS011;48953;53.110;5.592;2023-11-19T12:31:31;29.40;;;4.20;;
62861;SDS011;48953;53.110;5.592;2023-11-19T12:33:57;22.73;;;4.28;;
62861;SDS011;48953;53.110;5.592;2023-11-19T12:36:23;24.55;;;3.60;;
62861;SDS011;48953;53.110;5.592;2023-11-19T12:38:49;22.75;;;3.72;;
62861;SDS011;48953;53.110;5.592;2023-11-19T12:41:15;27.02;;;3.42;;
62861;SDS011;48953;53.110;5.592;2023-11-19T12:43:45;21.77;;;3.83;;
62861;SDS011;48953;53.110;5.592;2023-11-19T12:46:21;27.40;;;3.72;;
62861;SDS011;48953;53.110;5.592;2023-11-19T12:48:51;28.67;;;3.90;;
62861;SDS011;48953;53.110;5.592;2023-11-19T12:51:17;26.88;;;5.20;;
62861;SDS011;48953;53.110;5.592;2023-11-19T12:53:52;29.20;;;4.78;;
62861;SDS011;48953;53.110;5.592;2023-11-19T12:56:23;27.63;;;4.22;;
62861;SDS011;48953;53.110;5.592;2023-11-19T12:58:49;22.35;;;4.07;;
62861;SDS011;48953;53.110;5.592;2023-11-19T13:01:19;23.77;;;4.45;;
62861;SDS011;48953;53.110;5.592;2023-11-19T13:03:45;23.60;;;6.00;;
62861;SDS011;48953;53.110;5.592;2023-11-19T13:06:12;20.75;;;4.32;;
62861;SDS011;48953;53.110;5.592;2023-11-19T13:11:09;23.63;;;5.65;;
62861;SDS011;48953;53.110;5.592;2023-11-19T13:13:57;21.77;;;3.40;;
62861;SDS011;48953;53.110;5.592;2023-11-19T13:16:22;24.05;;;3.17;;
62861;SDS011;48953;53.110;5.592;2023-11-19T13:18:48;24.65;;;4.28;;
62861;SDS011;48953;53.110;5.592;2023-11-19T13:21:14;24.15;;;4.45;;
62861;SDS011;48953;53.110;5.592;2023-11-19T13:23:40;20.52;;;3.88;;
62861;SDS011;48953;53.110;5.592;2023-11-19T13:26:06;28.65;;;3.63;;
62861;SDS011;48953;53.110;5.592;2023-11-19T13:28:32;29.48;;;3.80;;
62861;SDS011;48953;53.110;5.592;2023-11-19T13:30:58;32.28;;;4.20;;
62861;SDS011;48953;53.110;5.592;2023-11-19T13:33:24;28.92;;;4.72;;
62861;SDS011;48953;53.110;5.592;2023-11-19T13:35:51;24.40;;;3.47;;
62861;SDS011;48953;53.110;5.592;2023-11-19T13:38:18;24.80;;;3.58;;
62861;SDS011;48953;53.110;5.592;2023-11-19T13:40:44;27.67;;;4.20;;
62861;SDS011;48953;53.110;5.592;2023-11-19T13:43:10;23.20;;;3.83;;
62861;SDS011;48953;53.110;5.592;2023-11-19T13:45:36;21.02;;;3.00;;
62861;SDS011;48953;53.110;5.592;2023-11-19T13:48:03;19.17;;;3.30;;
62861;SDS011;48953;53.110;5.592;2023-11-19T13:50:29;22.38;;;3.42;;
62861;SDS011;48953;53.110;5.592;2023-11-19T13:52:55;29.33;;;3.35;;
62861;SDS011;48953;53.110;5.592;2023-11-19T13:55:21;26.55;;;3.50;;
62861;SDS011;48953;53.110;5.592;2023-11-19T13:57:47;26.17;;;3.55;;
62861;SDS011;48953;53.110;5.592;2023-11-19T14:00:14;24.08;;;3.33;;
62861;SDS011;48953;53.110;5.592;2023-11-19T14:02:44;28.67;;;4.75;;
62861;SDS011;48953;53.110;5.592;2023-11-19T14:05:10;24.80;;;3.72;;
62861;SDS011;48953;53.110;5.592;2023-11-19T14:07:37;31.90;;;4.05;;
62861;SDS011;48953;53.110;5.592;2023-11-19T14:10:03;33.70;;;5.45;;
62861;SDS011;48953;53.110;5.592;2023-11-19T14:12:30;26.92;;;5.85;;
62861;SDS011;48953;53.110;5.592;2023-11-19T14:14:57;29.65;;;5.22;;
62861;SDS011;48953;53.110;5.592;2023-11-19T14:17:23;25.52;;;7.00;;
62861;SDS011;48953;53.110;5.592;2023-11-19T14:19:52;18.88;;;4.30;;
62861;SDS011;48953;53.110;5.592;2023-11-19T14:22:18;24.40;;;3.40;;
62861;SDS011;48953;53.110;5.592;2023-11-19T14:24:44;19.42;;;3.40;;
62861;SDS011;48953;53.110;5.592;2023-11-19T14:27:10;21.38;;;4.28;;
62861;SDS011;48953;53.110;5.592;2023-11-19T14:29:36;24.88;;;3.67;;
62861;SDS011;48953;53.110;5.592;2023-11-19T14:32:03;21.85;;;2.67;;
62861;SDS011;48953;53.110;5.592;2023-11-19T14:34:29;22.88;;;2.97;;
62861;SDS011;48953;53.110;5.592;2023-11-19T14:36:56;18.55;;;3.45;;
62861;SDS011;48953;53.110;5.592;2023-11-19T14:39:22;22.23;;;2.90;;
62861;SDS011;48953;53.110;5.592;2023-11-19T14:41:48;19.02;;;2.70;;
62861;SDS011;48953;53.110;5.592;2023-11-19T14:44:14;20.33;;;3.58;;
62861;SDS011;48953;53.110;5.592;2023-11-19T14:46:40;23.02;;;3.58;;
62861;SDS011;48953;53.110;5.592;2023-11-19T14:49:06;28.52;;;4.90;;
62861;SDS011;48953;53.110;5.592;2023-11-19T14:51:36;19.63;;;3.42;;
62861;SDS011;48953;53.110;5.592;2023-11-19T14:54:05;16.58;;;3.28;;
62861;SDS011;48953;53.110;5.592;2023-11-19T14:56:31;21.88;;;3.22;;